createdAt,value
2019-06-26T00:00:43.108Z,7.53
2019-06-26T00:03:09.679Z,11.75
2019-06-26T00:05:36.348Z,10.35
2019-06-26T00:08:03.090Z,8.68
2019-06-26T00:10:29.757Z,6.12
2019-06-26T00:12:56.326Z,6.33
2019-06-26T00:15:23.103Z,8.48
2019-06-26T00:17:49.643Z,11.15
2019-06-26T00:20:17.760Z,10.90
2019-06-26T00:22:44.294Z,9.73
2019-06-26T00:25:11.346Z,8.15
2019-06-26T00:27:37.881Z,11.55
2019-06-26T00:30:06.378Z,11.80
2019-06-26T00:32:33.021Z,11.43
2019-06-26T00:34:59.720Z,10.40
2019-06-26T00:37:26.248Z,10.48
2019-06-26T00:39:52.997Z,6.28
2019-06-26T00:42:19.567Z,6.08
2019-06-26T00:44:46.070Z,5.72
2019-06-26T00:47:12.638Z,8.65
2019-06-26T00:49:39.202Z,6.78
2019-06-26T00:52:05.846Z,7.62
2019-06-26T00:54:32.412Z,6.85
2019-06-26T00:56:58.927Z,6.45
2019-06-26T00:59:25.498Z,8.00
2019-06-26T01:01:52.241Z,10.58
2019-06-26T01:04:20.797Z,8.68
2019-06-26T01:06:47.308Z,10.10
2019-06-26T01:09:14.051Z,8.50
2019-06-26T01:11:41.129Z,8.50
2019-06-26T01:14:07.655Z,10.78
2019-06-26T01:16:34.215Z,10.68
2019-06-26T01:19:00.828Z,6.65
2019-06-26T01:21:28.591Z,9.08
2019-06-26T01:23:55.162Z,9.78
2019-06-26T01:26:21.820Z,7.90
2019-06-26T01:28:48.548Z,7.90
2019-06-26T01:31:15.140Z,5.92
2019-06-26T01:33:41.665Z,7.62
2019-06-26T01:36:08.346Z,9.20
2019-06-26T01:38:34.994Z,8.00
2019-06-26T01:41:01.492Z,6.42
2019-06-26T01:43:28.155Z,8.70
2019-06-26T01:45:54.708Z,7.55
2019-06-26T01:48:21.286Z,6.42
2019-06-26T01:50:47.980Z,7.58
2019-06-26T01:53:14.513Z,7.10
2019-06-26T01:55:41.078Z,8.35
2019-06-26T01:58:07.650Z,6.75
2019-06-26T02:00:34.205Z,8.98
2019-06-26T02:03:00.858Z,4.12
2019-06-26T02:05:27.436Z,5.92
2019-06-26T02:07:54.134Z,6.17
2019-06-26T02:10:20.768Z,5.85
2019-06-26T02:12:47.506Z,8.10
2019-06-26T02:15:15.128Z,4.20
2019-06-26T02:17:41.759Z,7.80
2019-06-26T02:20:08.278Z,7.78
2019-06-26T02:22:34.842Z,5.42
2019-06-26T02:25:01.525Z,8.08
2019-06-26T02:27:28.123Z,7.70
2019-06-26T02:29:54.785Z,9.73
2019-06-26T02:32:21.439Z,5.62
2019-06-26T02:34:48.090Z,5.62
2019-06-26T02:37:14.734Z,5.75
2019-06-26T02:39:41.378Z,6.15
2019-06-26T02:42:08.027Z,6.60
2019-06-26T02:44:51.551Z,6.00
2019-06-26T02:47:18.842Z,6.62
2019-06-26T02:49:31.320Z,3.75
2019-06-26T02:51:58.160Z,4.90
2019-06-26T02:54:24.717Z,5.90
2019-06-26T02:56:51.279Z,8.10
2019-06-26T02:59:17.865Z,10.40
2019-06-26T03:01:44.453Z,5.85
2019-06-26T03:04:11.284Z,6.35
2019-06-26T03:06:37.934Z,4.65
2019-06-26T03:09:05.678Z,4.15
2019-06-26T03:11:32.264Z,5.62
2019-06-26T03:13:58.932Z,8.55
2019-06-26T03:16:25.484Z,6.00
2019-06-26T03:18:52.031Z,4.15
2019-06-26T03:21:18.564Z,5.20
2019-06-26T03:23:45.286Z,4.40
2019-06-26T03:26:11.793Z,5.62
2019-06-26T03:28:38.398Z,5.08
2019-06-26T03:31:04.928Z,6.20
2019-06-26T03:33:31.574Z,3.12
2019-06-26T03:35:58.126Z,3.72
2019-06-26T03:38:24.657Z,3.15
2019-06-26T03:40:51.307Z,5.97
2019-06-26T03:43:18.033Z,6.28
2019-06-26T03:45:44.738Z,9.28
2019-06-26T03:48:11.478Z,3.40
2019-06-26T03:50:38.181Z,4.85
2019-06-26T03:53:05.041Z,8.45
2019-06-26T03:55:31.717Z,7.58
2019-06-26T03:57:58.263Z,4.17
2019-06-26T04:00:28.872Z,6.17
2019-06-26T04:02:55.555Z,4.40
2019-06-26T04:05:22.096Z,4.25
2019-06-26T04:07:48.802Z,3.25
2019-06-26T04:10:16.023Z,3.58
2019-06-26T04:12:42.762Z,7.65
2019-06-26T04:15:09.409Z,4.37
2019-06-26T04:17:35.975Z,2.95
2019-06-26T04:20:05.410Z,3.40
2019-06-26T04:22:32.059Z,3.30
2019-06-26T04:24:58.725Z,6.65
2019-06-26T04:27:25.270Z,5.42
2019-06-26T04:29:51.835Z,5.53
2019-06-26T04:32:18.667Z,3.58
2019-06-26T04:34:45.314Z,5.30
2019-06-26T04:37:12.401Z,3.33
2019-06-26T04:39:39.194Z,3.37
2019-06-26T04:42:05.695Z,7.30
2019-06-26T04:44:32.435Z,3.60
2019-06-26T04:46:59.162Z,3.65
2019-06-26T04:49:25.689Z,5.08
2019-06-26T04:51:52.336Z,5.15
2019-06-26T04:54:18.913Z,2.58
2019-06-26T04:56:45.446Z,7.00
2019-06-26T04:59:11.983Z,7.05
2019-06-26T05:01:38.678Z,6.35
2019-06-26T05:04:05.963Z,6.33
2019-06-26T05:06:33.148Z,6.47
2019-06-26T05:08:59.684Z,5.33
2019-06-26T05:11:26.277Z,5.28
2019-06-26T05:13:52.844Z,5.72
2019-06-26T05:16:20.629Z,5.95
2019-06-26T05:18:47.745Z,4.72
2019-06-26T05:21:14.387Z,5.35
2019-06-26T05:23:41.075Z,4.60
2019-06-26T05:26:07.858Z,4.53
2019-06-26T05:28:34.700Z,3.30
2019-06-26T05:31:01.700Z,3.87
2019-06-26T05:33:28.230Z,4.83
2019-06-26T05:35:54.779Z,6.58
2019-06-26T05:38:21.518Z,5.58
2019-06-26T05:40:48.155Z,4.53
2019-06-26T05:43:14.709Z,3.70
2019-06-26T05:45:41.244Z,2.67
2019-06-26T05:48:07.891Z,2.55
2019-06-26T05:50:34.500Z,4.72
2019-06-26T05:53:01.156Z,5.95
2019-06-26T05:55:27.781Z,4.08
2019-06-26T05:57:54.349Z,6.72
2019-06-26T06:00:20.894Z,6.37
2019-06-26T06:02:47.622Z,4.87
2019-06-26T06:05:14.696Z,4.12
2019-06-26T06:07:41.649Z,4.25
2019-06-26T06:10:09.105Z,5.45
2019-06-26T06:12:35.627Z,4.75
2019-06-26T06:15:07.350Z,4.35
2019-06-26T06:17:33.825Z,3.15
2019-06-26T06:20:00.483Z,3.35
2019-06-26T06:22:27.605Z,4.65
2019-06-26T06:24:56.229Z,4.85
2019-06-26T06:27:23.638Z,3.40
2019-06-26T06:29:50.181Z,4.58
2019-06-26T06:32:16.889Z,4.12
2019-06-26T06:34:43.415Z,5.47
2019-06-26T06:37:09.962Z,5.83
2019-06-26T06:39:36.627Z,2.17
2019-06-26T06:42:03.152Z,4.37
2019-06-26T06:44:33.373Z,6.35
2019-06-26T06:47:04.371Z,4.50
2019-06-26T06:49:28.643Z,3.42
2019-06-26T06:51:55.377Z,4.58
2019-06-26T06:54:21.940Z,4.67
2019-06-26T06:56:48.661Z,2.30
2019-06-26T06:59:15.232Z,3.42
2019-06-26T07:01:41.815Z,10.48
2019-06-26T07:04:08.385Z,4.87
2019-06-26T07:06:35.098Z,7.83
2019-06-26T07:09:01.816Z,5.35
2019-06-26T07:11:28.428Z,4.03
2019-06-26T07:13:54.974Z,4.28
2019-06-26T07:16:21.691Z,3.62
2019-06-26T07:18:48.205Z,4.60
2019-06-26T07:21:14.797Z,5.90
2019-06-26T07:23:41.863Z,4.15
2019-06-26T07:26:08.407Z,5.17
2019-06-26T07:28:35.145Z,2.80
2019-06-26T07:31:01.849Z,6.50
2019-06-26T07:33:30.320Z,3.37
2019-06-26T07:35:59.758Z,3.92
2019-06-26T07:38:28.267Z,2.77
2019-06-26T07:40:55.880Z,2.33
2019-06-26T07:43:24.665Z,6.75
2019-06-26T07:45:54.187Z,3.12
2019-06-26T07:48:24.417Z,2.05
2019-06-26T07:50:50.947Z,5.92
2019-06-26T07:53:17.496Z,4.97
2019-06-26T07:55:44.070Z,2.35
2019-06-26T07:58:10.597Z,2.40
2019-06-26T08:00:37.329Z,2.30
2019-06-26T08:03:04.642Z,4.95
2019-06-26T08:05:31.684Z,3.72
2019-06-26T08:07:58.353Z,1.85
2019-06-26T08:10:24.929Z,2.40
2019-06-26T08:12:51.752Z,2.87
2019-06-26T08:15:18.939Z,2.80
2019-06-26T08:17:59.254Z,2.42
2019-06-26T08:20:13.954Z,3.10
2019-06-26T08:22:40.496Z,2.17
2019-06-26T08:25:07.730Z,4.62
2019-06-26T08:27:34.259Z,4.60
2019-06-26T08:30:00.948Z,1.95
2019-06-26T08:32:27.570Z,3.87
2019-06-26T08:34:54.196Z,1.95
2019-06-26T08:37:20.745Z,3.52
2019-06-26T08:39:47.431Z,4.78
2019-06-26T08:42:14.073Z,3.80
2019-06-26T08:44:40.629Z,2.67
2019-06-26T08:47:07.173Z,3.58
2019-06-26T08:49:33.795Z,2.60
2019-06-26T08:52:00.661Z,4.40
2019-06-26T08:54:27.419Z,3.27
2019-06-26T08:56:54.525Z,4.17
2019-06-26T08:59:21.159Z,2.37
2019-06-26T09:01:47.776Z,3.83
2019-06-26T09:04:14.302Z,2.25
2019-06-26T09:06:40.838Z,3.25
2019-06-26T09:09:07.600Z,5.60
2019-06-26T09:11:34.621Z,3.85
2019-06-26T09:14:01.563Z,3.33
2019-06-26T09:16:28.354Z,2.72
2019-06-26T09:18:54.876Z,4.85
2019-06-26T09:21:21.553Z,3.98
2019-06-26T09:23:48.307Z,3.30
2019-06-26T09:26:14.845Z,2.30
2019-06-26T09:28:41.390Z,2.22
2019-06-26T09:31:08.030Z,2.22
2019-06-26T09:33:34.575Z,7.08
2019-06-26T09:36:01.109Z,2.22
2019-06-26T09:38:27.860Z,3.22
2019-06-26T09:40:54.359Z,2.37
2019-06-26T09:43:20.983Z,2.37
2019-06-26T09:45:47.554Z,2.62
2019-06-26T09:48:14.173Z,4.83
2019-06-26T09:50:40.811Z,4.65
2019-06-26T09:53:07.365Z,2.17
2019-06-26T09:55:34.061Z,3.00
2019-06-26T09:58:00.754Z,2.10
2019-06-26T10:00:27.270Z,6.15
2019-06-26T10:02:53.835Z,2.98
2019-06-26T10:05:20.554Z,2.55
2019-06-26T10:07:47.459Z,5.78
2019-06-26T10:10:14.553Z,3.22
2019-06-26T10:12:41.187Z,4.12
2019-06-26T10:15:08.831Z,2.33
2019-06-26T10:17:35.435Z,3.67
2019-06-26T10:20:06.417Z,2.50
2019-06-26T10:22:33.081Z,2.75
2019-06-26T10:24:59.660Z,4.83
2019-06-26T10:27:26.314Z,2.22
2019-06-26T10:29:52.947Z,4.15
2019-06-26T10:32:19.523Z,3.08
2019-06-26T10:34:46.090Z,3.00
2019-06-26T10:37:12.679Z,4.05
2019-06-26T10:39:39.296Z,2.67
2019-06-26T10:42:06.069Z,2.62
2019-06-26T10:44:32.583Z,3.92
2019-06-26T10:46:59.190Z,4.15
2019-06-26T10:49:27.398Z,3.87
2019-06-26T10:51:54.179Z,2.95
2019-06-26T10:54:20.829Z,3.37
2019-06-26T10:56:47.369Z,3.02
2019-06-26T10:59:14.172Z,2.65
2019-06-26T11:01:40.838Z,4.20
2019-06-26T11:04:07.355Z,4.80
2019-06-26T11:06:37.099Z,4.55
2019-06-26T11:09:04.549Z,6.50
2019-06-26T11:11:31.595Z,2.95
2019-06-26T11:13:58.136Z,3.95
2019-06-26T11:16:24.761Z,2.50
2019-06-26T11:18:51.380Z,5.15
2019-06-26T11:21:18.005Z,5.58
2019-06-26T11:23:45.155Z,4.28
2019-06-26T11:26:11.717Z,3.98
2019-06-26T11:28:38.257Z,3.22
2019-06-26T11:31:08.098Z,4.15
2019-06-26T11:33:34.583Z,4.10
2019-06-26T11:36:01.217Z,2.45
2019-06-26T11:38:27.855Z,2.92
2019-06-26T11:40:54.383Z,4.33
2019-06-26T11:43:21.013Z,3.45
2019-06-26T11:45:47.618Z,4.28
2019-06-26T11:48:14.181Z,3.70
2019-06-26T11:50:40.920Z,3.85
2019-06-26T11:53:07.605Z,2.20
2019-06-26T11:55:34.137Z,7.92
2019-06-26T11:58:00.799Z,2.08
2019-06-26T12:00:27.435Z,3.12
2019-06-26T12:02:53.984Z,3.05
2019-06-26T12:05:20.720Z,3.83
2019-06-26T12:07:47.253Z,4.70
2019-06-26T12:10:15.356Z,2.62
2019-06-26T12:12:41.948Z,3.50
2019-06-26T12:15:09.498Z,2.27
2019-06-26T12:17:36.112Z,4.20
2019-06-26T12:20:17.859Z,1.92
2019-06-26T12:22:32.492Z,2.12
2019-06-26T12:24:59.039Z,3.77
2019-06-26T12:27:25.602Z,2.45
2019-06-26T12:29:52.131Z,2.47
2019-06-26T12:32:18.671Z,4.03
2019-06-26T12:34:45.478Z,3.35
2019-06-26T12:37:12.370Z,3.87
2019-06-26T12:39:39.058Z,3.25
2019-06-26T12:42:05.688Z,3.00
2019-06-26T12:44:32.241Z,2.42
2019-06-26T12:46:58.790Z,3.52
2019-06-26T12:49:25.370Z,4.20
2019-06-26T12:51:52.073Z,3.55
2019-06-26T12:54:18.639Z,2.62
2019-06-26T12:56:45.330Z,2.25
2019-06-26T12:59:11.980Z,2.15
2019-06-26T13:01:38.818Z,3.67
2019-06-26T13:04:05.442Z,1.77
2019-06-26T13:06:32.107Z,2.22
2019-06-26T13:08:58.775Z,2.60
2019-06-26T13:11:25.393Z,2.92
2019-06-26T13:14:01.944Z,3.47
2019-06-26T13:16:20.339Z,3.08
2019-06-26T13:18:47.004Z,2.40
2019-06-26T13:21:13.533Z,3.25
2019-06-26T13:23:40.105Z,2.35
2019-06-26T13:26:06.635Z,2.17
2019-06-26T13:28:33.384Z,3.47
2019-06-26T13:30:59.921Z,4.47
2019-06-26T13:33:26.448Z,2.80
2019-06-26T13:35:53.053Z,2.42
2019-06-26T13:38:19.726Z,3.25
2019-06-26T13:40:46.298Z,7.47
2019-06-26T13:43:12.917Z,2.72
2019-06-26T13:45:39.469Z,3.12
2019-06-26T13:48:06.022Z,2.30
2019-06-26T13:50:32.549Z,3.62
2019-06-26T13:52:59.076Z,2.00
2019-06-26T13:55:25.643Z,3.00
2019-06-26T13:57:52.189Z,3.62
2019-06-26T14:00:19.889Z,2.27
2019-06-26T14:02:46.384Z,2.92
2019-06-26T14:05:13.103Z,2.85
2019-06-26T14:07:39.718Z,2.90
2019-06-26T14:10:07.977Z,2.42
2019-06-26T14:12:35.212Z,4.20
2019-06-26T14:15:04.143Z,2.30
2019-06-26T14:17:30.674Z,2.25
2019-06-26T14:19:57.243Z,1.87
2019-06-26T14:22:23.830Z,1.87
2019-06-26T14:24:53.889Z,4.08
2019-06-26T14:27:18.836Z,2.20
2019-06-26T14:29:45.491Z,2.77
2019-06-26T14:32:12.156Z,3.22
2019-06-26T14:34:38.793Z,2.67
2019-06-26T14:37:05.498Z,2.02
2019-06-26T14:39:32.141Z,2.98
2019-06-26T14:41:58.658Z,2.37
2019-06-26T14:44:25.387Z,4.00
2019-06-26T14:46:51.930Z,4.40
2019-06-26T14:49:18.464Z,2.05
2019-06-26T14:51:47.706Z,3.62
2019-06-26T14:54:13.411Z,2.40
2019-06-26T14:56:40.028Z,2.10
2019-06-26T14:59:06.667Z,2.45
2019-06-26T15:01:33.207Z,2.40
2019-06-26T15:03:59.738Z,2.35
2019-06-26T15:06:26.428Z,2.37
2019-06-26T15:08:52.985Z,2.60
2019-06-26T15:11:19.507Z,4.33
2019-06-26T15:13:46.091Z,4.28
2019-06-26T15:16:12.637Z,3.65
2019-06-26T15:18:39.172Z,4.45
2019-06-26T15:21:05.744Z,3.37
2019-06-26T15:23:32.422Z,3.10
2019-06-26T15:25:59.160Z,6.55
2019-06-26T15:28:25.692Z,2.77
2019-06-26T15:30:52.333Z,2.98
2019-06-26T15:33:19.000Z,4.08
2019-06-26T15:35:45.531Z,5.58
2019-06-26T15:38:12.145Z,2.33
2019-06-26T15:40:38.695Z,3.37
2019-06-26T15:43:05.256Z,2.65
2019-06-26T15:45:31.779Z,3.17
2019-06-26T15:47:58.369Z,3.22
2019-06-26T15:50:25.036Z,4.42
2019-06-26T15:52:51.719Z,3.12
2019-06-26T15:55:18.233Z,2.20
2019-06-26T15:57:44.767Z,3.08
2019-06-26T16:00:11.329Z,3.08
2019-06-26T16:02:37.869Z,2.95
2019-06-26T16:05:07.620Z,5.05
2019-06-26T16:07:34.303Z,5.55
2019-06-26T16:10:00.902Z,2.60
2019-06-26T16:12:27.423Z,3.50
2019-06-26T16:14:54.015Z,2.62
2019-06-26T16:17:25.508Z,3.05
2019-06-26T16:19:52.242Z,2.42
2019-06-26T16:22:31.715Z,4.60
2019-06-26T16:24:47.242Z,6.35
2019-06-26T16:27:13.825Z,2.95
2019-06-26T16:29:40.367Z,4.53
2019-06-26T16:32:06.990Z,3.72
2019-06-26T16:34:34.029Z,6.47
2019-06-26T16:37:00.540Z,3.83
2019-06-26T16:39:27.290Z,3.27
2019-06-26T16:41:53.810Z,4.87
2019-06-26T16:44:20.348Z,4.50
2019-06-26T16:46:47.074Z,5.58
2019-06-26T16:49:13.800Z,7.70
2019-06-26T16:51:40.378Z,8.38
2019-06-26T16:54:08.171Z,5.47
2019-06-26T16:56:34.763Z,5.05
2019-06-26T16:59:01.758Z,5.30
2019-06-26T17:01:28.287Z,5.78
2019-06-26T17:03:54.824Z,3.60
2019-06-26T17:06:21.366Z,4.67
2019-06-26T17:08:48.093Z,8.65
2019-06-26T17:11:14.625Z,7.95
2019-06-26T17:13:41.376Z,7.78
2019-06-26T17:16:08.071Z,7.65
2019-06-26T17:18:34.640Z,6.37
2019-06-26T17:21:01.217Z,3.85
2019-06-26T17:23:27.744Z,5.78
2019-06-26T17:25:54.276Z,5.83
2019-06-26T17:28:20.859Z,5.35
2019-06-26T17:30:47.402Z,5.83
2019-06-26T17:33:13.931Z,8.65
2019-06-26T17:35:40.626Z,4.65
2019-06-26T17:38:07.272Z,3.85
2019-06-26T17:40:34.041Z,9.65
2019-06-26T17:43:11.688Z,5.45
2019-06-26T17:45:29.018Z,6.30
2019-06-26T17:47:55.545Z,7.25
2019-06-26T17:50:22.225Z,6.47
2019-06-26T17:52:48.894Z,5.85
2019-06-26T17:55:15.691Z,5.30
2019-06-26T17:57:42.226Z,6.42
2019-06-26T18:00:10.034Z,6.67
2019-06-26T18:02:36.688Z,4.70
2019-06-26T18:05:04.745Z,6.60
2019-06-26T18:07:31.327Z,5.87
2019-06-26T18:09:58.136Z,4.95
2019-06-26T18:12:24.752Z,6.75
2019-06-26T18:14:51.319Z,6.05
2019-06-26T18:17:22.170Z,5.80
2019-06-26T18:19:46.240Z,7.58
2019-06-26T18:22:12.983Z,4.33
2019-06-26T18:24:39.553Z,6.70
2019-06-26T18:27:06.200Z,5.55
2019-06-26T18:29:32.771Z,5.25
2019-06-26T18:31:59.326Z,7.83
2019-06-26T18:34:25.913Z,9.43
2019-06-26T18:36:52.961Z,5.20
2019-06-26T18:39:19.663Z,3.08
2019-06-26T18:41:46.186Z,3.83
2019-06-26T18:44:13.230Z,3.02
2019-06-26T18:46:39.983Z,2.70
2019-06-26T18:49:06.571Z,4.75
2019-06-26T18:51:33.173Z,2.92
2019-06-26T18:54:01.098Z,3.17
2019-06-26T18:56:27.894Z,4.37
2019-06-26T18:58:54.464Z,3.22
2019-06-26T19:01:21.187Z,3.27
2019-06-26T19:03:47.898Z,1.95
2019-06-26T19:06:14.424Z,3.30
2019-06-26T19:08:40.947Z,2.05
2019-06-26T19:11:07.526Z,3.62
2019-06-26T19:13:34.090Z,2.67
2019-06-26T19:16:04.261Z,2.52
2019-06-26T19:18:29.114Z,3.67
2019-06-26T19:20:55.755Z,1.92
2019-06-26T19:23:22.329Z,2.35
2019-06-26T19:25:48.850Z,2.35
2019-06-26T19:28:15.758Z,3.75
2019-06-26T19:30:42.469Z,2.60
2019-06-26T19:33:08.995Z,2.75
2019-06-26T19:35:35.560Z,2.58
2019-06-26T19:38:02.143Z,2.58
2019-06-26T19:40:28.758Z,1.60
2019-06-26T19:42:55.339Z,1.77
2019-06-26T19:45:21.985Z,2.77
2019-06-26T19:47:48.692Z,1.75
2019-06-26T19:50:15.356Z,2.37
2019-06-26T19:52:41.942Z,4.47
2019-06-26T19:55:09.066Z,2.27
2019-06-26T19:57:35.604Z,1.82
2019-06-26T20:00:02.596Z,4.92
2019-06-26T20:02:29.275Z,4.42
2019-06-26T20:04:55.838Z,2.80
2019-06-26T20:07:22.518Z,2.90
2019-06-26T20:09:49.082Z,2.27
2019-06-26T20:12:15.623Z,2.90
2019-06-26T20:14:42.212Z,1.85
2019-06-26T20:17:08.769Z,3.08
2019-06-26T20:19:35.625Z,4.12
2019-06-26T20:22:02.225Z,4.10
2019-06-26T20:24:42.776Z,2.70
2019-06-26T20:26:57.175Z,2.33
2019-06-26T20:29:23.713Z,3.55
2019-06-26T20:31:50.294Z,2.50
2019-06-26T20:34:17.020Z,2.33
2019-06-26T20:36:43.603Z,3.70
2019-06-26T20:39:10.149Z,3.62
2019-06-26T20:41:36.712Z,3.27
2019-06-26T20:44:03.410Z,5.33
2019-06-26T20:46:30.084Z,3.52
2019-06-26T20:48:56.631Z,3.75
2019-06-26T20:51:23.289Z,2.02
2019-06-26T20:53:50.009Z,3.35
2019-06-26T20:56:16.557Z,3.00
2019-06-26T20:58:43.098Z,4.00
2019-06-26T21:01:09.786Z,3.60
2019-06-26T21:03:36.418Z,2.77
2019-06-26T21:06:03.002Z,2.42
2019-06-26T21:08:29.777Z,3.12
2019-06-26T21:10:56.355Z,4.85
2019-06-26T21:13:23.007Z,3.52
2019-06-26T21:15:52.793Z,4.20
2019-06-26T21:18:17.983Z,6.35
2019-06-26T21:20:44.566Z,2.95
2019-06-26T21:23:18.551Z,2.75
2019-06-26T21:28:40.484Z,4.05
2019-06-26T21:31:07.346Z,2.75
2019-06-26T21:33:33.875Z,3.92
2019-06-26T21:36:00.556Z,4.60
2019-06-26T21:38:27.234Z,4.83
2019-06-26T21:40:53.948Z,2.67
2019-06-26T21:43:20.782Z,6.72
2019-06-26T21:45:47.360Z,4.42
2019-06-26T21:48:13.915Z,3.80
2019-06-26T21:50:40.893Z,3.50
2019-06-26T21:53:07.452Z,3.37
2019-06-26T21:55:35.058Z,2.60
2019-06-26T21:58:02.169Z,3.50
2019-06-26T22:00:29.933Z,3.70
2019-06-26T22:02:57.852Z,6.65
2019-06-26T22:05:25.852Z,4.25
2019-06-26T22:07:52.980Z,4.60
2019-06-26T22:10:19.592Z,3.95
2019-06-26T22:12:46.256Z,4.08
2019-06-26T22:15:14.121Z,5.00
2019-06-26T22:17:41.168Z,4.08
2019-06-26T22:20:12.350Z,3.55
2019-06-26T22:22:36.917Z,4.20
2019-06-26T22:25:07.182Z,4.85
2019-06-26T22:27:33.730Z,4.67
2019-06-26T22:30:00.267Z,3.90
2019-06-26T22:32:27.181Z,5.62
2019-06-26T22:34:53.704Z,3.87
2019-06-26T22:37:20.246Z,4.72
2019-06-26T22:39:46.957Z,3.20
2019-06-26T22:42:13.486Z,4.20
2019-06-26T22:44:40.054Z,5.95
2019-06-26T22:47:06.687Z,8.55
2019-06-26T22:49:33.341Z,5.40
2019-06-26T22:51:59.934Z,4.03
2019-06-26T22:54:26.508Z,5.72
2019-06-26T22:56:53.052Z,5.53
2019-06-26T22:59:19.624Z,4.10
2019-06-26T23:01:46.179Z,6.53
2019-06-26T23:04:12.748Z,4.92
2019-06-26T23:06:40.549Z,7.33
2019-06-26T23:09:08.209Z,4.47
2019-06-26T23:11:34.817Z,5.12
2019-06-26T23:14:01.457Z,4.22
2019-06-26T23:16:28.118Z,6.67
2019-06-26T23:18:55.904Z,5.37
2019-06-26T23:21:22.496Z,4.97
2019-06-26T23:23:49.048Z,4.42
2019-06-26T23:26:23.776Z,6.00
2019-06-26T23:28:44.214Z,4.42
2019-06-26T23:31:10.710Z,4.78
2019-06-26T23:33:37.406Z,3.30
2019-06-26T23:36:03.952Z,6.15
2019-06-26T23:38:30.599Z,5.28
2019-06-26T23:40:57.234Z,4.17
2019-06-26T23:43:23.930Z,9.03
2019-06-26T23:45:50.488Z,5.30
2019-06-26T23:48:17.196Z,5.30
2019-06-26T23:50:43.758Z,4.28
2019-06-26T23:53:10.326Z,5.37
2019-06-26T23:55:36.870Z,7.30
2019-06-26T23:58:03.449Z,5.20
